sensor_id;sensor_type;location;lat;lon;timestamp;P1;durP1;ratioP1;P2;durP2;ratioP2
8861;SDS011;4799;50.996;4.754;2023-03-25T00:01:28;3.73;;;1.90;;
8861;SDS011;4799;50.996;4.754;2023-03-25T00:03:57;4.63;;;1.60;;
8861;SDS011;4799;50.996;4.754;2023-03-25T00:06:25;4.30;;;1.87;;
8861;SDS011;4799;50.996;4.754;2023-03-25T00:08:52;3.73;;;1.60;;
8861;SDS011;4799;50.996;4.754;2023-03-25T00:11:18;4.87;;;1.60;;
8861;SDS011;4799;50.996;4.754;2023-03-25T00:13:44;4.20;;;1.50;;
8861;SDS011;4799;50.996;4.754;2023-03-25T00:16:12;3.43;;;1.23;;
8861;SDS011;4799;50.996;4.754;2023-03-25T00:18:38;3.30;;;1.50;;
8861;SDS011;4799;50.996;4.754;2023-03-25T00:21:05;2.83;;;1.50;;
8861;SDS011;4799;50.996;4.754;2023-03-25T00:23:35;4.10;;;1.60;;
8861;SDS011;4799;50.996;4.754;2023-03-25T00:26:03;5.50;;;1.50;;
8861;SDS011;4799;50.996;4.754;2023-03-25T00:28:30;2.87;;;1.30;;
8861;SDS011;4799;50.996;4.754;2023-03-25T00:31:05;2.83;;;1.43;;
8861;SDS011;4799;50.996;4.754;2023-03-25T00:33:33;3.73;;;1.43;;
8861;SDS011;4799;50.996;4.754;2023-03-25T00:35:59;2.87;;;1.30;;
8861;SDS011;4799;50.996;4.754;2023-03-25T00:38:25;4.43;;;1.63;;
8861;SDS011;4799;50.996;4.754;2023-03-25T00:41:12;3.23;;;1.47;;
8861;SDS011;4799;50.996;4.754;2023-03-25T00:43:42;3.73;;;1.60;;
8861;SDS011;4799;50.996;4.754;2023-03-25T00:46:09;4.37;;;1.70;;
8861;SDS011;4799;50.996;4.754;2023-03-25T00:48:35;5.33;;;2.00;;
8861;SDS011;4799;50.996;4.754;2023-03-25T00:51:02;3.67;;;1.50;;
8861;SDS011;4799;50.996;4.754;2023-03-25T00:53:32;3.37;;;1.47;;
8861;SDS011;4799;50.996;4.754;2023-03-25T00:55:59;3.80;;;1.73;;
8861;SDS011;4799;50.996;4.754;2023-03-25T00:58:25;4.27;;;1.63;;
8861;SDS011;4799;50.996;4.754;2023-03-25T01:00:51;4.20;;;1.57;;
8861;SDS011;4799;50.996;4.754;2023-03-25T01:03:17;3.70;;;1.50;;
8861;SDS011;4799;50.996;4.754;2023-03-25T01:05:43;5.57;;;1.70;;
8861;SDS011;4799;50.996;4.754;2023-03-25T01:08:09;4.43;;;1.63;;
8861;SDS011;4799;50.996;4.754;2023-03-25T01:10:35;3.23;;;1.57;;
8861;SDS011;4799;50.996;4.754;2023-03-25T01:13:01;3.40;;;1.23;;
8861;SDS011;4799;50.996;4.754;2023-03-25T01:15:27;3.77;;;1.40;;
8861;SDS011;4799;50.996;4.754;2023-03-25T01:17:53;5.90;;;1.67;;
8861;SDS011;4799;50.996;4.754;2023-03-25T01:20:19;8.03;;;2.07;;
8861;SDS011;4799;50.996;4.754;2023-03-25T01:22:45;6.10;;;1.90;;
8861;SDS011;4799;50.996;4.754;2023-03-25T01:25:11;3.53;;;1.53;;
8861;SDS011;4799;50.996;4.754;2023-03-25T01:27:36;4.17;;;1.40;;
8861;SDS011;4799;50.996;4.754;2023-03-25T01:30:02;4.07;;;1.70;;
8861;SDS011;4799;50.996;4.754;2023-03-25T01:32:29;3.90;;;1.80;;
8861;SDS011;4799;50.996;4.754;2023-03-25T01:34:54;3.80;;;1.70;;
8861;SDS011;4799;50.996;4.754;2023-03-25T01:37:20;4.97;;;1.73;;
8861;SDS011;4799;50.996;4.754;2023-03-25T01:39:46;5.67;;;2.00;;
8861;SDS011;4799;50.996;4.754;2023-03-25T01:42:12;3.53;;;1.73;;
8861;SDS011;4799;50.996;4.754;2023-03-25T01:47:03;6.27;;;1.83;;
8861;SDS011;4799;50.996;4.754;2023-03-25T01:49:35;4.80;;;1.80;;
8861;SDS011;4799;50.996;4.754;2023-03-25T01:52:06;7.13;;;2.00;;
8861;SDS011;4799;50.996;4.754;2023-03-25T01:54:36;6.13;;;2.00;;
8861;SDS011;4799;50.996;4.754;2023-03-25T01:57:04;5.33;;;2.00;;
8861;SDS011;4799;50.996;4.754;2023-03-25T01:59:31;3.63;;;1.70;;
8861;SDS011;4799;50.996;4.754;2023-03-25T02:01:58;5.13;;;1.87;;
8861;SDS011;4799;50.996;4.754;2023-03-25T02:05:11;4.27;;;1.77;;
8861;SDS011;4799;50.996;4.754;2023-03-25T02:07:24;4.03;;;1.73;;
8861;SDS011;4799;50.996;4.754;2023-03-25T02:10:02;4.97;;;1.80;;
8861;SDS011;4799;50.996;4.754;2023-03-25T02:12:30;5.07;;;2.10;;
8861;SDS011;4799;50.996;4.754;2023-03-25T02:14:56;3.50;;;1.40;;
8861;SDS011;4799;50.996;4.754;2023-03-25T02:26:22;5.13;;;1.90;;
8861;SDS011;4799;50.996;4.754;2023-03-25T02:28:56;6.13;;;2.00;;
8861;SDS011;4799;50.996;4.754;2023-03-25T02:37:43;5.47;;;1.90;;
8861;SDS011;4799;50.996;4.754;2023-03-25T02:40:18;5.60;;;1.80;;
8861;SDS011;4799;50.996;4.754;2023-03-25T02:42:51;5.63;;;1.67;;
8861;SDS011;4799;50.996;4.754;2023-03-25T02:45:33;4.47;;;1.50;;
8861;SDS011;4799;50.996;4.754;2023-03-25T02:48:03;6.70;;;1.80;;
8861;SDS011;4799;50.996;4.754;2023-03-25T02:50:42;7.17;;;1.67;;
8861;SDS011;4799;50.996;4.754;2023-03-25T02:53:13;4.60;;;1.70;;
8861;SDS011;4799;50.996;4.754;2023-03-25T02:55:45;7.23;;;1.97;;
8861;SDS011;4799;50.996;4.754;2023-03-25T02:58:15;6.63;;;2.17;;
8861;SDS011;4799;50.996;4.754;2023-03-25T03:00:45;5.37;;;2.00;;
8861;SDS011;4799;50.996;4.754;2023-03-25T03:03:13;5.97;;;2.00;;
8861;SDS011;4799;50.996;4.754;2023-03-25T03:05:43;7.53;;;1.97;;
8861;SDS011;4799;50.996;4.754;2023-03-25T03:16:05;7.03;;;1.70;;
8861;SDS011;4799;50.996;4.754;2023-03-25T03:18:43;7.33;;;1.97;;
8861;SDS011;4799;50.996;4.754;2023-03-25T03:21:18;5.03;;;1.93;;
8861;SDS011;4799;50.996;4.754;2023-03-25T03:23:56;4.83;;;1.87;;
8861;SDS011;4799;50.996;4.754;2023-03-25T03:26:44;6.30;;;2.03;;
8861;SDS011;4799;50.996;4.754;2023-03-25T03:29:27;6.77;;;2.10;;
8861;SDS011;4799;50.996;4.754;2023-03-25T03:32:00;6.57;;;1.70;;
8861;SDS011;4799;50.996;4.754;2023-03-25T03:34:30;6.60;;;2.00;;
8861;SDS011;4799;50.996;4.754;2023-03-25T03:37:05;7.90;;;2.13;;
8861;SDS011;4799;50.996;4.754;2023-03-25T03:39:34;5.90;;;1.97;;
8861;SDS011;4799;50.996;4.754;2023-03-25T03:42:16;6.00;;;2.33;;
8861;SDS011;4799;50.996;4.754;2023-03-25T03:44:50;5.50;;;2.00;;
8861;SDS011;4799;50.996;4.754;2023-03-25T03:47:21;4.47;;;1.90;;
8861;SDS011;4799;50.996;4.754;2023-03-25T03:50:09;7.73;;;2.07;;
8861;SDS011;4799;50.996;4.754;2023-03-25T03:52:40;7.43;;;2.10;;
8861;SDS011;4799;50.996;4.754;2023-03-25T03:55:22;8.07;;;2.13;;
8861;SDS011;4799;50.996;4.754;2023-03-25T03:57:55;6.97;;;2.10;;
8861;SDS011;4799;50.996;4.754;2023-03-25T04:03:45;7.00;;;2.27;;
8861;SDS011;4799;50.996;4.754;2023-03-25T04:06:32;6.30;;;2.20;;
8861;SDS011;4799;50.996;4.754;2023-03-25T04:09:26;8.37;;;2.50;;
8861;SDS011;4799;50.996;4.754;2023-03-25T04:12:20;7.00;;;2.23;;
8861;SDS011;4799;50.996;4.754;2023-03-25T04:14:52;8.90;;;2.40;;
8861;SDS011;4799;50.996;4.754;2023-03-25T04:17:19;7.60;;;2.50;;
8861;SDS011;4799;50.996;4.754;2023-03-25T04:19:45;7.17;;;2.40;;
8861;SDS011;4799;50.996;4.754;2023-03-25T04:22:13;8.70;;;2.40;;
8861;SDS011;4799;50.996;4.754;2023-03-25T04:24:41;8.37;;;2.60;;
8861;SDS011;4799;50.996;4.754;2023-03-25T04:27:08;8.70;;;2.93;;
8861;SDS011;4799;50.996;4.754;2023-03-25T04:29:37;8.70;;;3.10;;
8861;SDS011;4799;50.996;4.754;2023-03-25T04:32:04;9.70;;;3.23;;
8861;SDS011;4799;50.996;4.754;2023-03-25T04:34:32;12.53;;;2.97;;
8861;SDS011;4799;50.996;4.754;2023-03-25T04:36:58;9.23;;;2.97;;
8861;SDS011;4799;50.996;4.754;2023-03-25T04:39:23;6.20;;;2.60;;
8861;SDS011;4799;50.996;4.754;2023-03-25T04:41:49;9.37;;;3.23;;
8861;SDS011;4799;50.996;4.754;2023-03-25T04:44:17;8.17;;;2.80;;
8861;SDS011;4799;50.996;4.754;2023-03-25T04:46:46;6.07;;;2.47;;
8861;SDS011;4799;50.996;4.754;2023-03-25T04:49:16;7.13;;;2.23;;
8861;SDS011;4799;50.996;4.754;2023-03-25T04:51:48;7.67;;;2.47;;
8861;SDS011;4799;50.996;4.754;2023-03-25T04:54:21;8.63;;;2.57;;
8861;SDS011;4799;50.996;4.754;2023-03-25T04:56:47;6.27;;;2.33;;
8861;SDS011;4799;50.996;4.754;2023-03-25T04:59:15;7.40;;;2.30;;
8861;SDS011;4799;50.996;4.754;2023-03-25T05:01:45;6.23;;;2.37;;
8861;SDS011;4799;50.996;4.754;2023-03-25T05:04:12;4.53;;;2.00;;
8861;SDS011;4799;50.996;4.754;2023-03-25T05:06:42;7.57;;;2.27;;
8861;SDS011;4799;50.996;4.754;2023-03-25T05:09:12;7.83;;;2.33;;
8861;SDS011;4799;50.996;4.754;2023-03-25T05:11:40;9.80;;;2.40;;
8861;SDS011;4799;50.996;4.754;2023-03-25T05:14:07;7.23;;;2.00;;
8861;SDS011;4799;50.996;4.754;2023-03-25T05:16:34;7.83;;;2.20;;
8861;SDS011;4799;50.996;4.754;2023-03-25T05:19:00;7.80;;;2.60;;
8861;SDS011;4799;50.996;4.754;2023-03-25T05:21:31;8.40;;;2.47;;
8861;SDS011;4799;50.996;4.754;2023-03-25T05:24:00;8.47;;;2.70;;
8861;SDS011;4799;50.996;4.754;2023-03-25T05:26:26;5.53;;;2.00;;
8861;SDS011;4799;50.996;4.754;2023-03-25T05:28:59;6.33;;;2.30;;
8861;SDS011;4799;50.996;4.754;2023-03-25T05:31:26;6.43;;;2.17;;
8861;SDS011;4799;50.996;4.754;2023-03-25T05:33:52;5.80;;;2.00;;
8861;SDS011;4799;50.996;4.754;2023-03-25T05:36:19;5.80;;;1.87;;
8861;SDS011;4799;50.996;4.754;2023-03-25T05:38:45;8.70;;;2.43;;
8861;SDS011;4799;50.996;4.754;2023-03-25T05:41:12;9.10;;;2.27;;
8861;SDS011;4799;50.996;4.754;2023-03-25T05:43:42;5.83;;;2.10;;
8861;SDS011;4799;50.996;4.754;2023-03-25T05:46:14;6.80;;;2.07;;
8861;SDS011;4799;50.996;4.754;2023-03-25T05:48:41;7.10;;;2.00;;
8861;SDS011;4799;50.996;4.754;2023-03-25T05:51:14;6.23;;;2.37;;
8861;SDS011;4799;50.996;4.754;2023-03-25T05:53:42;8.50;;;2.47;;
8861;SDS011;4799;50.996;4.754;2023-03-25T05:56:12;11.27;;;2.67;;
8861;SDS011;4799;50.996;4.754;2023-03-25T05:58:37;7.47;;;2.07;;
8861;SDS011;4799;50.996;4.754;2023-03-25T06:01:03;9.80;;;2.60;;
8861;SDS011;4799;50.996;4.754;2023-03-25T06:03:30;8.77;;;2.50;;
8861;SDS011;4799;50.996;4.754;2023-03-25T06:05:58;10.13;;;2.93;;
8861;SDS011;4799;50.996;4.754;2023-03-25T06:08:25;7.90;;;2.80;;
8861;SDS011;4799;50.996;4.754;2023-03-25T06:10:54;8.17;;;2.40;;
8861;SDS011;4799;50.996;4.754;2023-03-25T06:13:25;8.50;;;2.83;;
8861;SDS011;4799;50.996;4.754;2023-03-25T06:15:51;6.83;;;2.43;;
8861;SDS011;4799;50.996;4.754;2023-03-25T06:18:23;9.40;;;2.73;;
8861;SDS011;4799;50.996;4.754;2023-03-25T06:20:49;10.47;;;2.80;;
8861;SDS011;4799;50.996;4.754;2023-03-25T06:23:18;9.33;;;2.60;;
8861;SDS011;4799;50.996;4.754;2023-03-25T06:25:51;6.13;;;2.30;;
8861;SDS011;4799;50.996;4.754;2023-03-25T06:28:17;8.47;;;2.70;;
8861;SDS011;4799;50.996;4.754;2023-03-25T06:30:43;9.10;;;2.63;;
8861;SDS011;4799;50.996;4.754;2023-03-25T06:33:10;8.30;;;2.77;;
8861;SDS011;4799;50.996;4.754;2023-03-25T06:35:38;8.60;;;2.80;;
8861;SDS011;4799;50.996;4.754;2023-03-25T06:38:06;8.87;;;2.67;;
8861;SDS011;4799;50.996;4.754;2023-03-25T06:40:34;8.80;;;2.80;;
8861;SDS011;4799;50.996;4.754;2023-03-25T06:43:06;7.37;;;2.43;;
8861;SDS011;4799;50.996;4.754;2023-03-25T06:45:32;10.90;;;2.77;;
8861;SDS011;4799;50.996;4.754;2023-03-25T06:47:58;8.87;;;2.43;;
8861;SDS011;4799;50.996;4.754;2023-03-25T06:50:25;7.27;;;2.23;;
8861;SDS011;4799;50.996;4.754;2023-03-25T06:52:50;10.47;;;2.87;;
8861;SDS011;4799;50.996;4.754;2023-03-25T06:55:16;9.93;;;2.67;;
8861;SDS011;4799;50.996;4.754;2023-03-25T06:57:42;7.87;;;2.20;;
8861;SDS011;4799;50.996;4.754;2023-03-25T07:00:09;6.73;;;2.03;;
8861;SDS011;4799;50.996;4.754;2023-03-25T07:02:38;10.93;;;3.13;;
8861;SDS011;4799;50.996;4.754;2023-03-25T07:05:04;9.50;;;2.90;;
8861;SDS011;4799;50.996;4.754;2023-03-25T07:07:30;11.63;;;2.70;;
8861;SDS011;4799;50.996;4.754;2023-03-25T07:09:56;11.50;;;2.80;;
8861;SDS011;4799;50.996;4.754;2023-03-25T07:12:22;8.30;;;2.60;;
8861;SDS011;4799;50.996;4.754;2023-03-25T07:14:51;11.83;;;3.00;;
8861;SDS011;4799;50.996;4.754;2023-03-25T07:17:21;8.53;;;2.57;;
8861;SDS011;4799;50.996;4.754;2023-03-25T07:19:47;10.27;;;2.70;;
8861;SDS011;4799;50.996;4.754;2023-03-25T07:22:14;10.50;;;3.00;;
8861;SDS011;4799;50.996;4.754;2023-03-25T07:24:40;10.03;;;2.67;;
8861;SDS011;4799;50.996;4.754;2023-03-25T07:27:05;8.77;;;2.60;;
8861;SDS011;4799;50.996;4.754;2023-03-25T07:29:31;11.23;;;2.60;;
8861;SDS011;4799;50.996;4.754;2023-03-25T07:31:57;8.67;;;2.93;;
8861;SDS011;4799;50.996;4.754;2023-03-25T07:34:23;11.67;;;2.70;;
8861;SDS011;4799;50.996;4.754;2023-03-25T07:36:49;9.97;;;2.83;;
8861;SDS011;4799;50.996;4.754;2023-03-25T07:39:15;9.83;;;2.73;;
8861;SDS011;4799;50.996;4.754;2023-03-25T07:41:42;8.67;;;2.90;;
8861;SDS011;4799;50.996;4.754;2023-03-25T07:44:08;10.80;;;3.20;;
8861;SDS011;4799;50.996;4.754;2023-03-25T07:46:34;11.70;;;3.00;;
8861;SDS011;4799;50.996;4.754;2023-03-25T07:48:59;15.47;;;3.20;;
8861;SDS011;4799;50.996;4.754;2023-03-25T07:51:25;13.83;;;3.40;;
8861;SDS011;4799;50.996;4.754;2023-03-25T07:53:51;10.40;;;3.10;;
8861;SDS011;4799;50.996;4.754;2023-03-25T07:56:17;10.00;;;3.20;;
8861;SDS011;4799;50.996;4.754;2023-03-25T07:58:42;10.90;;;3.30;;
8861;SDS011;4799;50.996;4.754;2023-03-25T08:01:09;11.07;;;3.07;;
8861;SDS011;4799;50.996;4.754;2023-03-25T08:03:35;9.80;;;3.10;;
8861;SDS011;4799;50.996;4.754;2023-03-25T08:06:04;10.67;;;2.63;;
8861;SDS011;4799;50.996;4.754;2023-03-25T08:08:30;12.95;;;3.60;;
8861;SDS011;4799;50.996;4.754;2023-03-25T08:10:57;10.30;;;3.20;;
8861;SDS011;4799;50.996;4.754;2023-03-25T08:13:23;16.20;;;4.03;;
8861;SDS011;4799;50.996;4.754;2023-03-25T08:15:49;9.30;;;3.37;;
8861;SDS011;4799;50.996;4.754;2023-03-25T08:18:16;13.13;;;3.37;;
8861;SDS011;4799;50.996;4.754;2023-03-25T08:20:42;11.47;;;3.13;;
8861;SDS011;4799;50.996;4.754;2023-03-25T08:23:08;13.43;;;3.47;;
8861;SDS011;4799;50.996;4.754;2023-03-25T08:25:35;11.00;;;2.80;;
8861;SDS011;4799;50.996;4.754;2023-03-25T08:28:02;7.57;;;2.90;;
8861;SDS011;4799;50.996;4.754;2023-03-25T08:30:28;11.00;;;3.03;;
8861;SDS011;4799;50.996;4.754;2023-03-25T08:32:54;9.00;;;3.23;;
8861;SDS011;4799;50.996;4.754;2023-03-25T08:35:23;9.80;;;2.93;;
8861;SDS011;4799;50.996;4.754;2023-03-25T08:37:49;11.03;;;2.90;;
8861;SDS011;4799;50.996;4.754;2023-03-25T08:40:15;11.33;;;3.10;;
8861;SDS011;4799;50.996;4.754;2023-03-25T08:42:41;15.13;;;3.47;;
8861;SDS011;4799;50.996;4.754;2023-03-25T08:45:07;11.80;;;3.70;;
8861;SDS011;4799;50.996;4.754;2023-03-25T08:47:34;13.63;;;3.77;;
8861;SDS011;4799;50.996;4.754;2023-03-25T08:49:59;11.93;;;3.43;;
8861;SDS011;4799;50.996;4.754;2023-03-25T08:52:25;14.63;;;3.40;;
8861;SDS011;4799;50.996;4.754;2023-03-25T08:54:51;12.37;;;3.20;;
8861;SDS011;4799;50.996;4.754;2023-03-25T08:57:17;11.13;;;3.03;;
8861;SDS011;4799;50.996;4.754;2023-03-25T08:59:42;10.77;;;3.27;;
8861;SDS011;4799;50.996;4.754;2023-03-25T09:02:10;10.80;;;3.20;;
8861;SDS011;4799;50.996;4.754;2023-03-25T09:04:36;11.67;;;3.80;;
8861;SDS011;4799;50.996;4.754;2023-03-25T09:07:03;11.63;;;3.40;;
8861;SDS011;4799;50.996;4.754;2023-03-25T09:09:31;12.00;;;3.80;;
8861;SDS011;4799;50.996;4.754;2023-03-25T09:11:57;12.80;;;3.60;;
8861;SDS011;4799;50.996;4.754;2023-03-25T09:14:23;11.97;;;3.20;;
8861;SDS011;4799;50.996;4.754;2023-03-25T09:16:49;11.50;;;3.60;;
8861;SDS011;4799;50.996;4.754;2023-03-25T09:19:15;11.93;;;3.20;;
8861;SDS011;4799;50.996;4.754;2023-03-25T09:21:41;12.37;;;3.27;;
8861;SDS011;4799;50.996;4.754;2023-03-25T09:24:07;12.43;;;3.20;;
8861;SDS011;4799;50.996;4.754;2023-03-25T09:26:33;11.93;;;3.67;;
8861;SDS011;4799;50.996;4.754;2023-03-25T09:29:00;14.23;;;3.57;;
8861;SDS011;4799;50.996;4.754;2023-03-25T09:31:26;11.37;;;2.80;;
8861;SDS011;4799;50.996;4.754;2023-03-25T09:33:52;13.13;;;3.90;;
8861;SDS011;4799;50.996;4.754;2023-03-25T09:36:18;11.83;;;3.40;;
8861;SDS011;4799;50.996;4.754;2023-03-25T09:38:43;15.13;;;4.30;;
8861;SDS011;4799;50.996;4.754;2023-03-25T09:41:28;13.30;;;3.70;;
8861;SDS011;4799;50.996;4.754;2023-03-25T09:44:15;12.10;;;3.13;;
8861;SDS011;4799;50.996;4.754;2023-03-25T09:46:46;12.47;;;3.50;;
8861;SDS011;4799;50.996;4.754;2023-03-25T09:49:15;10.97;;;3.20;;
8861;SDS011;4799;50.996;4.754;2023-03-25T09:51:44;10.07;;;3.10;;
8861;SDS011;4799;50.996;4.754;2023-03-25T09:54:21;13.97;;;4.30;;
8861;SDS011;4799;50.996;4.754;2023-03-25T09:56:54;14.10;;;4.03;;
8861;SDS011;4799;50.996;4.754;2023-03-25T09:59:24;10.27;;;3.60;;
8861;SDS011;4799;50.996;4.754;2023-03-25T10:02:05;10.70;;;3.20;;
8861;SDS011;4799;50.996;4.754;2023-03-25T10:16:00;11.47;;;3.50;;
8861;SDS011;4799;50.996;4.754;2023-03-25T10:23:44;13.47;;;4.03;;
8861;SDS011;4799;50.996;4.754;2023-03-25T10:26:22;15.93;;;4.43;;
8861;SDS011;4799;50.996;4.754;2023-03-25T10:28:57;12.03;;;3.90;;
8861;SDS011;4799;50.996;4.754;2023-03-25T10:31:28;14.13;;;4.03;;
8861;SDS011;4799;50.996;4.754;2023-03-25T10:34:03;13.63;;;4.30;;
8861;SDS011;4799;50.996;4.754;2023-03-25T10:36:45;14.90;;;4.30;;
8861;SDS011;4799;50.996;4.754;2023-03-25T10:39:16;16.47;;;3.77;;
8861;SDS011;4799;50.996;4.754;2023-03-25T10:41:45;13.53;;;4.17;;
8861;SDS011;4799;50.996;4.754;2023-03-25T10:44:16;14.40;;;4.10;;
8861;SDS011;4799;50.996;4.754;2023-03-25T10:46:45;13.83;;;4.03;;
8861;SDS011;4799;50.996;4.754;2023-03-25T10:49:21;17.80;;;4.70;;
8861;SDS011;4799;50.996;4.754;2023-03-25T10:51:51;12.70;;;3.93;;
8861;SDS011;4799;50.996;4.754;2023-03-25T10:54:18;13.90;;;4.13;;
8861;SDS011;4799;50.996;4.754;2023-03-25T10:56:50;11.53;;;3.57;;
8861;SDS011;4799;50.996;4.754;2023-03-25T10:59:24;12.93;;;4.20;;
8861;SDS011;4799;50.996;4.754;2023-03-25T11:01:54;12.67;;;4.00;;
8861;SDS011;4799;50.996;4.754;2023-03-25T11:04:30;10.60;;;3.70;;
8861;SDS011;4799;50.996;4.754;2023-03-25T11:06:59;13.33;;;3.67;;
8861;SDS011;4799;50.996;4.754;2023-03-25T11:09:30;10.43;;;3.60;;
8861;SDS011;4799;50.996;4.754;2023-03-25T11:12:00;11.97;;;3.67;;
8861;SDS011;4799;50.996;4.754;2023-03-25T11:14:30;11.77;;;3.87;;
8861;SDS011;4799;50.996;4.754;2023-03-25T11:17:03;9.23;;;3.50;;
8861;SDS011;4799;50.996;4.754;2023-03-25T11:19:36;12.83;;;3.73;;
8861;SDS011;4799;50.996;4.754;2023-03-25T11:22:48;16.67;;;3.63;;
8861;SDS011;4799;50.996;4.754;2023-03-25T11:24:59;11.27;;;3.37;;
8861;SDS011;4799;50.996;4.754;2023-03-25T11:27:47;13.07;;;3.43;;
8861;SDS011;4799;50.996;4.754;2023-03-25T11:30:18;14.47;;;3.40;;
8861;SDS011;4799;50.996;4.754;2023-03-25T11:32:59;11.93;;;3.37;;
8861;SDS011;4799;50.996;4.754;2023-03-25T11:35:36;9.80;;;3.50;;
8861;SDS011;4799;50.996;4.754;2023-03-25T11:38:12;11.67;;;3.37;;
8861;SDS011;4799;50.996;4.754;2023-03-25T11:40:48;10.90;;;2.70;;
8861;SDS011;4799;50.996;4.754;2023-03-25T11:43:21;11.77;;;3.27;;
8861;SDS011;4799;50.996;4.754;2023-03-25T11:45:49;15.17;;;3.50;;
8861;SDS011;4799;50.996;4.754;2023-03-25T11:48:16;10.07;;;2.70;;
8861;SDS011;4799;50.996;4.754;2023-03-25T11:50:58;13.53;;;3.50;;
8861;SDS011;4799;50.996;4.754;2023-03-25T11:53:26;14.93;;;3.50;;
8861;SDS011;4799;50.996;4.754;2023-03-25T11:56:02;12.87;;;3.70;;
8861;SDS011;4799;50.996;4.754;2023-03-25T11:58:33;14.33;;;4.33;;
8861;SDS011;4799;50.996;4.754;2023-03-25T12:01:03;14.67;;;3.23;;
8861;SDS011;4799;50.996;4.754;2023-03-25T12:03:32;9.27;;;3.07;;
8861;SDS011;4799;50.996;4.754;2023-03-25T12:08:30;8.60;;;2.57;;
8861;SDS011;4799;50.996;4.754;2023-03-25T12:11:34;10.57;;;2.63;;
8861;SDS011;4799;50.996;4.754;2023-03-25T12:17:04;8.47;;;2.63;;
8861;SDS011;4799;50.996;4.754;2023-03-25T12:25:05;8.67;;;2.40;;
8861;SDS011;4799;50.996;4.754;2023-03-25T12:30:32;9.57;;;2.67;;
8861;SDS011;4799;50.996;4.754;2023-03-25T12:38:36;9.27;;;2.83;;
8861;SDS011;4799;50.996;4.754;2023-03-25T12:49:48;9.33;;;2.60;;
8861;SDS011;4799;50.996;4.754;2023-03-25T13:00:59;8.87;;;2.53;;
8861;SDS011;4799;50.996;4.754;2023-03-25T13:06:38;9.20;;;2.73;;
8861;SDS011;4799;50.996;4.754;2023-03-25T13:11:42;7.87;;;2.97;;
8861;SDS011;4799;50.996;4.754;2023-03-25T13:14:27;9.20;;;2.60;;
8861;SDS011;4799;50.996;4.754;2023-03-25T13:17:02;10.93;;;3.00;;
8861;SDS011;4799;50.996;4.754;2023-03-25T13:19:33;10.03;;;2.80;;
8861;SDS011;4799;50.996;4.754;2023-03-25T13:22:06;8.80;;;3.07;;
8861;SDS011;4799;50.996;4.754;2023-03-25T13:27:19;8.03;;;3.10;;
8861;SDS011;4799;50.996;4.754;2023-03-25T13:29:50;12.47;;;3.40;;
8861;SDS011;4799;50.996;4.754;2023-03-25T13:35:17;9.70;;;3.10;;
8861;SDS011;4799;50.996;4.754;2023-03-25T13:37:52;9.30;;;2.93;;
8861;SDS011;4799;50.996;4.754;2023-03-25T13:40:25;10.00;;;3.00;;
8861;SDS011;4799;50.996;4.754;2023-03-25T13:43:10;13.03;;;3.73;;
8861;SDS011;4799;50.996;4.754;2023-03-25T13:45:54;10.33;;;3.03;;
8861;SDS011;4799;50.996;4.754;2023-03-25T13:48:40;11.13;;;3.10;;
8861;SDS011;4799;50.996;4.754;2023-03-25T13:51:06;10.60;;;2.77;;
8861;SDS011;4799;50.996;4.754;2023-03-25T13:53:52;11.77;;;3.27;;
8861;SDS011;4799;50.996;4.754;2023-03-25T13:56:33;9.70;;;2.80;;
8861;SDS011;4799;50.996;4.754;2023-03-25T14:01:44;13.83;;;3.20;;
8861;SDS011;4799;50.996;4.754;2023-03-25T14:07:43;10.57;;;3.13;;
8861;SDS011;4799;50.996;4.754;2023-03-25T14:13:09;12.00;;;2.93;;
8861;SDS011;4799;50.996;4.754;2023-03-25T14:15:39;11.80;;;3.07;;
8861;SDS011;4799;50.996;4.754;2023-03-25T14:18:14;13.23;;;3.43;;
8861;SDS011;4799;50.996;4.754;2023-03-25T14:20:42;14.93;;;3.60;;
8861;SDS011;4799;50.996;4.754;2023-03-25T14:23:16;10.50;;;3.30;;
8861;SDS011;4799;50.996;4.754;2023-03-25T14:25:45;14.47;;;3.50;;
8861;SDS011;4799;50.996;4.754;2023-03-25T14:28:18;14.40;;;3.73;;
8861;SDS011;4799;50.996;4.754;2023-03-25T14:38:55;12.63;;;3.53;;
8861;SDS011;4799;50.996;4.754;2023-03-25T14:44:23;10.03;;;2.87;;
8861;SDS011;4799;50.996;4.754;2023-03-25T14:46:59;11.33;;;3.00;;
8861;SDS011;4799;50.996;4.754;2023-03-25T14:52:47;11.17;;;3.40;;
8861;SDS011;4799;50.996;4.754;2023-03-25T14:55:20;10.33;;;2.93;;
8861;SDS011;4799;50.996;4.754;2023-03-25T14:57:49;10.70;;;3.03;;
8861;SDS011;4799;50.996;4.754;2023-03-25T15:00:42;9.57;;;2.83;;
8861;SDS011;4799;50.996;4.754;2023-03-25T15:03:15;11.23;;;3.20;;
8861;SDS011;4799;50.996;4.754;2023-03-25T15:05:43;10.40;;;2.70;;
8861;SDS011;4799;50.996;4.754;2023-03-25T15:08:23;8.27;;;2.40;;
8861;SDS011;4799;50.996;4.754;2023-03-25T15:11:12;7.63;;;2.50;;
8861;SDS011;4799;50.996;4.754;2023-03-25T15:13:45;7.83;;;2.30;;
8861;SDS011;4799;50.996;4.754;2023-03-25T15:16:18;9.87;;;2.90;;
8861;SDS011;4799;50.996;4.754;2023-03-25T15:19:04;7.20;;;2.43;;
8861;SDS011;4799;50.996;4.754;2023-03-25T15:21:32;8.33;;;2.43;;
8861;SDS011;4799;50.996;4.754;2023-03-25T15:24:28;8.67;;;2.90;;
8861;SDS011;4799;50.996;4.754;2023-03-25T15:26:59;9.13;;;3.07;;
8861;SDS011;4799;50.996;4.754;2023-03-25T15:29:35;9.40;;;3.10;;
8861;SDS011;4799;50.996;4.754;2023-03-25T15:40:58;10.03;;;2.87;;
8861;SDS011;4799;50.996;4.754;2023-03-25T15:43:47;9.43;;;2.90;;
8861;SDS011;4799;50.996;4.754;2023-03-25T15:55:44;9.17;;;3.00;;
8861;SDS011;4799;50.996;4.754;2023-03-25T15:57:47;9.57;;;3.03;;
8861;SDS011;4799;50.996;4.754;2023-03-25T16:02:50;11.70;;;3.17;;
8861;SDS011;4799;50.996;4.754;2023-03-25T16:05:23;11.13;;;2.90;;
8861;SDS011;4799;50.996;4.754;2023-03-25T16:07:49;10.67;;;3.00;;
8861;SDS011;4799;50.996;4.754;2023-03-25T16:10:17;10.90;;;2.83;;
8861;SDS011;4799;50.996;4.754;2023-03-25T16:12:50;7.70;;;2.83;;
8861;SDS011;4799;50.996;4.754;2023-03-25T16:15:17;11.87;;;3.20;;
8861;SDS011;4799;50.996;4.754;2023-03-25T16:17:50;9.33;;;3.07;;
8861;SDS011;4799;50.996;4.754;2023-03-25T16:20:17;12.43;;;3.20;;
8861;SDS011;4799;50.996;4.754;2023-03-25T16:22:48;10.37;;;3.37;;
8861;SDS011;4799;50.996;4.754;2023-03-25T16:25:19;9.33;;;3.20;;
8861;SDS011;4799;50.996;4.754;2023-03-25T16:27:53;10.97;;;3.60;;
8861;SDS011;4799;50.996;4.754;2023-03-25T16:30:31;12.73;;;3.40;;
8861;SDS011;4799;50.996;4.754;2023-03-25T16:35:36;14.67;;;3.80;;
8861;SDS011;4799;50.996;4.754;2023-03-25T16:38:04;10.37;;;3.67;;
8861;SDS011;4799;50.996;4.754;2023-03-25T16:40:31;11.97;;;3.90;;
8861;SDS011;4799;50.996;4.754;2023-03-25T16:43:22;12.30;;;3.33;;
8861;SDS011;4799;50.996;4.754;2023-03-25T16:45:51;14.27;;;4.30;;
8861;SDS011;4799;50.996;4.754;2023-03-25T16:48:33;13.93;;;3.50;;
8861;SDS011;4799;50.996;4.754;2023-03-25T16:51:06;13.60;;;3.43;;
8861;SDS011;4799;50.996;4.754;2023-03-25T16:54:00;12.90;;;3.70;;
8861;SDS011;4799;50.996;4.754;2023-03-25T16:56:36;12.47;;;3.40;;
8861;SDS011;4799;50.996;4.754;2023-03-25T16:59:10;14.97;;;4.17;;
8861;SDS011;4799;50.996;4.754;2023-03-25T17:01:50;14.97;;;3.97;;
8861;SDS011;4799;50.996;4.754;2023-03-25T17:04:22;10.37;;;3.10;;
8861;SDS011;4799;50.996;4.754;2023-03-25T17:06:59;12.07;;;3.60;;
8861;SDS011;4799;50.996;4.754;2023-03-25T17:09:28;15.87;;;4.00;;
8861;SDS011;4799;50.996;4.754;2023-03-25T17:11:59;15.27;;;3.77;;
8861;SDS011;4799;50.996;4.754;2023-03-25T17:14:28;13.27;;;4.20;;
8861;SDS011;4799;50.996;4.754;2023-03-25T17:17:05;14.93;;;3.43;;
8861;SDS011;4799;50.996;4.754;2023-03-25T17:19:37;11.53;;;3.77;;
8861;SDS011;4799;50.996;4.754;2023-03-25T17:22:14;12.43;;;4.17;;
8861;SDS011;4799;50.996;4.754;2023-03-25T17:25:23;10.17;;;3.57;;
8861;SDS011;4799;50.996;4.754;2023-03-25T17:27:42;16.23;;;3.87;;
8861;SDS011;4799;50.996;4.754;2023-03-25T17:30:15;13.80;;;3.77;;
8861;SDS011;4799;50.996;4.754;2023-03-25T17:33:13;14.57;;;4.37;;
8861;SDS011;4799;50.996;4.754;2023-03-25T17:35:40;12.97;;;3.90;;
8861;SDS011;4799;50.996;4.754;2023-03-25T17:38:13;16.00;;;4.03;;
8861;SDS011;4799;50.996;4.754;2023-03-25T17:41:02;14.93;;;3.90;;
8861;SDS011;4799;50.996;4.754;2023-03-25T17:43:52;13.27;;;3.90;;
8861;SDS011;4799;50.996;4.754;2023-03-25T17:46:20;12.00;;;4.20;;
8861;SDS011;4799;50.996;4.754;2023-03-25T17:48:51;13.13;;;4.10;;
8861;SDS011;4799;50.996;4.754;2023-03-25T17:51:19;13.10;;;3.67;;
8861;SDS011;4799;50.996;4.754;2023-03-25T17:53:48;15.23;;;4.47;;